createdAt,value
2019-02-27T00:01:40.775Z,1.62
2019-02-27T00:04:11.437Z,1.57
2019-02-27T00:06:41.897Z,1.53
2019-02-27T00:09:12.851Z,1.46
2019-02-27T00:11:46.195Z,1.45
2019-02-27T00:14:15.221Z,1.41
2019-02-27T00:16:45.433Z,1.40
2019-02-27T00:19:15.660Z,1.35
2019-02-27T00:21:46.079Z,1.33
2019-02-27T00:24:16.378Z,1.27
2019-02-27T00:26:46.590Z,1.27
2019-02-27T00:29:16.753Z,1.34
2019-02-27T00:31:46.913Z,1.19
2019-02-27T00:34:17.122Z,1.08
2019-02-27T00:36:47.402Z,0.96
2019-02-27T00:39:17.576Z,0.94
2019-02-27T00:41:48.076Z,0.97
2019-02-27T00:44:18.707Z,1.04
2019-02-27T00:46:49.010Z,1.05
2019-02-27T00:49:19.269Z,1.06
2019-02-27T00:51:49.536Z,1.04
2019-02-27T00:54:19.717Z,1.00
2019-02-27T00:56:50.018Z,0.94
2019-02-27T00:59:20.642Z,0.89
2019-02-27T01:01:50.924Z,0.90
2019-02-27T01:04:21.225Z,0.83
2019-02-27T01:06:51.581Z,0.83
2019-02-27T01:09:21.705Z,0.82
2019-02-27T01:11:52.514Z,0.84
2019-02-27T01:14:22.812Z,0.80
2019-02-27T01:16:54.162Z,0.76
2019-02-27T01:19:24.292Z,0.77
2019-02-27T01:21:54.530Z,0.71
2019-02-27T01:24:24.661Z,0.66
2019-02-27T01:26:55.193Z,0.62
2019-02-27T01:29:25.401Z,0.60
2019-02-27T01:31:57.671Z,0.62
2019-02-27T01:34:27.751Z,0.54
2019-02-27T01:36:58.638Z,0.48
2019-02-27T01:39:28.826Z,0.46
2019-02-27T01:41:59.165Z,0.48
2019-02-27T01:44:29.415Z,0.50
2019-02-27T01:47:02.328Z,0.49
2019-02-27T01:49:31.565Z,0.47
2019-02-27T01:52:02.226Z,0.47
2019-02-27T01:54:32.925Z,0.41
2019-02-27T01:57:03.599Z,0.41
2019-02-27T01:59:34.210Z,0.42
2019-02-27T02:02:05.573Z,0.42
2019-02-27T02:04:35.848Z,0.34
2019-02-27T02:07:06.581Z,0.34
2019-02-27T02:09:39.110Z,0.34
2019-02-27T02:12:22.164Z,0.30
2019-02-27T02:15:08.477Z,0.32
2019-02-27T02:18:19.772Z,0.34
2019-02-27T02:21:02.482Z,0.34
2019-02-27T02:23:52.435Z,0.28
2019-02-27T02:27:07.762Z,0.21
2019-02-27T02:30:18.547Z,0.10
2019-02-27T02:33:28.950Z,0.13
2019-02-27T02:36:33.538Z,0.08
2019-02-27T02:39:35.722Z,0.04
2019-02-27T02:42:59.190Z,-0.05
2019-02-27T02:45:37.256Z,-0.09
2019-02-27T02:48:48.494Z,-0.21
2019-02-27T02:52:05.542Z,-0.33
2019-02-27T02:54:56.929Z,-0.30
2019-02-27T02:58:11.446Z,-0.28
2019-02-27T03:00:47.229Z,-0.29
2019-02-27T03:03:51.701Z,-0.27
2019-02-27T03:06:48.843Z,-0.24
2019-02-27T03:10:21.373Z,-0.21
2019-02-27T03:13:13.634Z,-0.21
2019-02-27T03:16:23.332Z,-0.19
2019-02-27T03:19:41.426Z,-0.25
2019-02-27T03:22:29.285Z,-0.24
2019-02-27T03:25:51.190Z,-0.31
2019-02-27T03:28:40.966Z,-0.34
2019-02-27T03:31:30.646Z,-0.34
2019-02-27T03:34:57.222Z,-0.36
2019-02-27T03:37:55.348Z,-0.36
2019-02-27T03:41:00.581Z,-0.36
2019-02-27T03:43:57.841Z,-0.35
2019-02-27T03:46:55.379Z,-0.44
2019-02-27T03:49:53.604Z,-0.48
2019-02-27T03:53:11.023Z,-0.47
2019-02-27T03:56:28.715Z,-0.49
2019-02-27T03:59:23.073Z,-0.54
2019-02-27T04:02:30.959Z,-0.58
2019-02-27T04:05:28.365Z,-0.66
2019-02-27T04:08:43.484Z,-0.67
2019-02-27T04:11:08.392Z,-0.74
2019-02-27T04:13:38.525Z,-0.80
2019-02-27T04:16:09.813Z,-0.91
2019-02-27T04:18:38.310Z,-0.91
2019-02-27T04:21:08.708Z,-0.94
2019-02-27T04:23:39.098Z,-0.95
2019-02-27T04:26:09.714Z,-0.95
2019-02-27T04:28:40.029Z,-1.00
2019-02-27T04:31:10.191Z,-1.05
2019-02-27T04:33:40.333Z,-1.06
2019-02-27T04:36:12.836Z,-1.11
2019-02-27T04:38:42.519Z,-1.14
2019-02-27T04:41:12.727Z,-1.14
2019-02-27T04:43:42.915Z,-1.21
2019-02-27T04:46:13.183Z,-1.19
2019-02-27T04:48:43.422Z,-1.14
2019-02-27T04:51:16.914Z,-1.11
2019-02-27T04:53:46.064Z,-1.14
2019-02-27T04:56:17.134Z,-1.17
2019-02-27T04:58:47.487Z,-1.20
2019-02-27T05:01:18.169Z,-1.23
2019-02-27T05:03:48.486Z,-1.22
2019-02-27T05:06:18.668Z,-1.27
2019-02-27T05:08:49.092Z,-1.29
2019-02-27T05:11:19.426Z,-1.29
2019-02-27T05:13:54.109Z,-1.34
2019-02-27T05:16:21.741Z,-1.29
2019-02-27T05:18:51.930Z,-1.30
2019-02-27T05:21:22.553Z,-1.25
2019-02-27T05:23:52.948Z,-1.24
2019-02-27T05:26:27.028Z,-1.32
2019-02-27T05:28:56.603Z,-1.38
2019-02-27T05:31:26.739Z,-1.40
2019-02-27T05:33:57.059Z,-1.39
2019-02-27T05:36:29.004Z,-1.37
2019-02-27T05:38:59.937Z,-1.38
2019-02-27T05:41:32.965Z,-1.41
2019-02-27T05:44:02.360Z,-1.41
2019-02-27T05:46:32.730Z,-1.41
2019-02-27T05:49:02.937Z,-1.40
2019-02-27T05:51:33.252Z,-1.44
2019-02-27T05:54:03.403Z,-1.51
2019-02-27T05:56:33.769Z,-1.54
2019-02-27T05:59:03.893Z,-1.53
2019-02-27T06:01:38.007Z,-1.49
2019-02-27T06:04:06.307Z,-1.53
2019-02-27T06:06:38.013Z,-1.55
2019-02-27T06:09:10.391Z,-1.53
2019-02-27T06:11:40.312Z,-1.51
2019-02-27T06:14:10.582Z,-1.53
2019-02-27T06:16:40.987Z,-1.49
2019-02-27T06:19:11.202Z,-1.44
2019-02-27T06:21:41.397Z,-1.41
2019-02-27T06:24:12.710Z,-1.42
2019-02-27T06:26:43.651Z,-1.36
2019-02-27T06:29:13.908Z,-1.40
2019-02-27T06:31:44.021Z,-1.40
2019-02-27T06:34:14.263Z,-1.39
2019-02-27T06:36:44.547Z,-1.42
2019-02-27T06:39:15.295Z,-1.46
2019-02-27T06:41:47.429Z,-1.46
2019-02-27T06:44:19.114Z,-1.33
2019-02-27T06:46:51.151Z,-1.33
2019-02-27T06:49:21.239Z,-1.27
2019-02-27T06:51:51.563Z,-1.22
2019-02-27T06:54:21.719Z,-1.17
2019-02-27T06:56:51.898Z,-1.08
2019-02-27T06:59:24.740Z,-1.04
2019-02-27T07:01:54.242Z,-1.03
2019-02-27T07:04:24.486Z,-1.01
2019-02-27T07:06:55.458Z,-0.92
2019-02-27T07:09:26.498Z,-0.71
2019-02-27T07:11:56.919Z,-0.71
2019-02-27T07:14:27.093Z,-0.64
2019-02-27T07:16:57.903Z,-0.58
2019-02-27T07:19:28.396Z,-0.53
2019-02-27T07:21:58.649Z,-0.43
2019-02-27T07:24:30.575Z,-0.37
2019-02-27T07:27:02.135Z,-0.28
2019-02-27T07:29:32.512Z,-0.20
2019-02-27T07:32:03.145Z,-0.10
2019-02-27T07:34:33.330Z,0.03
2019-02-27T07:37:03.743Z,0.11
2019-02-27T07:39:34.081Z,0.20
2019-02-27T07:42:04.316Z,0.31
2019-02-27T07:44:35.146Z,0.41
2019-02-27T07:47:06.418Z,0.50
2019-02-27T07:49:37.683Z,0.62
2019-02-27T07:52:07.803Z,0.68
2019-02-27T07:54:38.013Z,0.79
2019-02-27T07:57:08.418Z,0.89
2019-02-27T07:59:39.555Z,1.04
2019-02-27T08:02:09.831Z,1.20
2019-02-27T08:04:39.999Z,1.51
2019-02-27T08:07:12.388Z,1.90
2019-02-27T08:09:42.249Z,2.20
2019-02-27T08:12:12.458Z,2.63
2019-02-27T08:14:42.608Z,3.22
2019-02-27T08:17:17.738Z,3.99
2019-02-27T08:19:45.462Z,4.49
2019-02-27T08:22:16.299Z,4.96
2019-02-27T08:24:46.488Z,5.91
2019-02-27T08:27:16.631Z,7.08
2019-02-27T08:29:46.804Z,8.39
2019-02-27T08:32:17.183Z,9.97
2019-02-27T08:34:47.779Z,11.46
2019-02-27T08:37:20.240Z,13.23
2019-02-27T08:39:50.526Z,14.42
2019-02-27T08:42:21.219Z,15.13
2019-02-27T08:44:51.719Z,16.12
2019-02-27T08:47:22.071Z,16.48
2019-02-27T08:49:57.611Z,17.48
2019-02-27T08:52:24.356Z,18.51
2019-02-27T08:54:54.694Z,18.73
2019-02-27T08:57:24.838Z,19.28
2019-02-27T08:59:55.083Z,20.82
2019-02-27T09:02:29.183Z,21.06
2019-02-27T09:04:58.248Z,21.51
2019-02-27T09:07:28.554Z,21.80
2019-02-27T09:09:58.847Z,22.95
2019-02-27T09:12:30.678Z,22.67
2019-02-27T09:15:01.034Z,23.30
2019-02-27T09:17:32.770Z,23.26
2019-02-27T09:20:03.477Z,23.59
2019-02-27T09:22:33.922Z,24.04
2019-02-27T09:25:05.923Z,24.87
2019-02-27T09:27:36.083Z,25.36
2019-02-27T09:30:07.771Z,26.01
2019-02-27T09:32:38.370Z,26.84
2019-02-27T09:35:10.208Z,26.86
2019-02-27T09:37:40.633Z,27.23
2019-02-27T09:40:13.418Z,27.35
2019-02-27T09:42:43.779Z,28.41
2019-02-27T09:45:23.841Z,28.81
2019-02-27T09:47:53.991Z,29.55
2019-02-27T09:50:33.270Z,30.83
2019-02-27T09:53:04.426Z,31.80
2019-02-27T09:55:36.359Z,31.94
2019-02-27T09:58:11.012Z,32.31
2019-02-27T10:00:51.372Z,32.82
2019-02-27T10:03:21.696Z,32.72
2019-02-27T10:05:52.026Z,32.94
2019-02-27T10:08:25.346Z,33.39
2019-02-27T10:10:54.888Z,30.87
2019-02-27T10:13:25.164Z,29.64
2019-02-27T10:16:00.550Z,29.37
2019-02-27T10:18:27.742Z,29.54
2019-02-27T10:20:58.514Z,29.82
2019-02-27T10:23:31.140Z,30.74
2019-02-27T10:26:01.150Z,30.21
2019-02-27T10:28:38.698Z,32.48
2019-02-27T10:31:06.638Z,33.51
2019-02-27T10:33:36.918Z,33.94
2019-02-27T10:36:07.502Z,33.97
2019-02-27T10:38:40.362Z,33.86
2019-02-27T10:41:10.284Z,32.98
2019-02-27T10:43:40.945Z,33.58
2019-02-27T10:46:11.454Z,34.47
2019-02-27T10:48:41.783Z,35.02
2019-02-27T10:51:12.202Z,35.66
2019-02-27T10:53:42.443Z,35.34
2019-02-27T10:56:13.447Z,35.21
2019-02-27T10:58:45.038Z,35.45
2019-02-27T11:01:15.774Z,36.26
2019-02-27T11:03:46.024Z,37.75
2019-02-27T11:14:39.453Z,38.83
2019-02-27T11:17:10.103Z,39.18
2019-02-27T11:19:40.670Z,39.41
2019-02-27T11:22:10.924Z,39.15
2019-02-27T11:24:41.522Z,39.56
2019-02-27T11:27:12.073Z,37.51
2019-02-27T11:29:42.525Z,35.99
2019-02-27T11:32:12.893Z,37.62
2019-02-27T11:34:45.613Z,38.45
2019-02-27T11:37:16.512Z,38.02
2019-02-27T11:39:47.021Z,36.63
2019-02-27T11:42:18.658Z,39.20
2019-02-27T11:44:50.234Z,39.96
2019-02-27T11:47:20.441Z,37.56
2019-02-27T11:49:50.913Z,37.64
2019-02-27T11:52:21.111Z,39.06
2019-02-27T11:54:51.354Z,40.36
2019-02-27T11:57:21.530Z,41.68
2019-02-27T11:59:51.689Z,40.65
2019-02-27T12:02:28.754Z,41.59
2019-02-27T12:04:56.609Z,39.54
2019-02-27T12:07:25.921Z,39.50
2019-02-27T12:09:56.288Z,41.04
2019-02-27T12:12:26.518Z,42.48
2019-02-27T12:14:56.719Z,42.70
2019-02-27T12:17:26.950Z,43.75
2019-02-27T12:19:57.214Z,41.48
2019-02-27T12:22:28.484Z,39.12
2019-02-27T12:24:58.732Z,39.58
2019-02-27T12:27:47.739Z,38.41
2019-02-27T12:30:02.847Z,41.14
2019-02-27T12:32:34.194Z,38.08
2019-02-27T12:35:04.458Z,40.24
2019-02-27T12:37:34.998Z,39.09
2019-02-27T12:40:06.357Z,40.65
2019-02-27T12:42:37.498Z,39.30
2019-02-27T12:45:12.419Z,40.17
2019-02-27T12:47:42.954Z,41.11
2019-02-27T12:50:14.849Z,41.76
2019-02-27T12:52:47.939Z,42.55
2019-02-27T12:55:18.042Z,42.28
2019-02-27T12:57:49.589Z,42.13
2019-02-27T13:00:25.728Z,42.80
2019-02-27T13:02:58.926Z,41.24
2019-02-27T13:05:29.805Z,41.13
2019-02-27T13:08:00.278Z,39.88
2019-02-27T13:10:34.184Z,41.97
2019-02-27T13:13:02.608Z,40.48
2019-02-27T13:15:33.162Z,40.61
2019-02-27T13:18:03.884Z,40.58
2019-02-27T13:20:34.231Z,40.85
2019-02-27T13:23:05.397Z,40.96
2019-02-27T13:25:36.320Z,42.48
2019-02-27T13:28:06.653Z,41.01
2019-02-27T13:30:41.314Z,40.57
2019-02-27T13:33:09.094Z,38.47
2019-02-27T13:35:39.708Z,37.88
2019-02-27T13:38:10.167Z,36.88
2019-02-27T13:40:40.644Z,39.49
2019-02-27T13:43:10.838Z,40.59
2019-02-27T13:45:42.519Z,40.82
2019-02-27T13:48:14.107Z,41.87
2019-02-27T13:50:44.356Z,40.82
2019-02-27T13:53:15.098Z,40.98
2019-02-27T13:55:48.113Z,40.71
2019-02-27T13:58:17.665Z,40.23
2019-02-27T14:00:48.960Z,40.70
2019-02-27T14:03:19.764Z,41.12
2019-02-27T14:05:50.250Z,41.23
2019-02-27T14:08:20.723Z,40.58
2019-02-27T14:10:53.366Z,39.69
2019-02-27T14:13:23.734Z,39.54
2019-02-27T14:15:53.984Z,40.87
2019-02-27T14:18:24.730Z,40.57
2019-02-27T14:20:55.496Z,41.63
2019-02-27T14:23:26.167Z,41.66
2019-02-27T14:25:56.643Z,41.34
2019-02-27T14:28:27.100Z,40.14
2019-02-27T14:30:57.414Z,37.98
2019-02-27T14:33:28.210Z,39.56
2019-02-27T14:35:58.604Z,38.04
2019-02-27T14:38:28.818Z,39.13
2019-02-27T14:40:59.191Z,39.31
2019-02-27T14:43:29.971Z,36.17
2019-02-27T14:46:00.864Z,36.01
2019-02-27T14:48:31.389Z,36.18
2019-02-27T14:51:01.813Z,34.88
2019-02-27T14:53:32.349Z,31.88
2019-02-27T14:56:03.667Z,32.02
2019-02-27T14:58:34.216Z,31.76
2019-02-27T15:01:05.202Z,28.79
2019-02-27T15:03:35.697Z,27.95
2019-02-27T15:06:05.919Z,29.03
2019-02-27T15:08:36.474Z,28.96
2019-02-27T15:11:06.987Z,28.53
2019-02-27T15:13:37.479Z,27.32
2019-02-27T15:16:07.717Z,27.48
2019-02-27T15:18:37.944Z,26.83
2019-02-27T15:21:12.988Z,26.01
2019-02-27T15:23:40.725Z,24.70
2019-02-27T15:26:13.878Z,25.19
2019-02-27T15:28:43.459Z,24.83
2019-02-27T15:31:13.786Z,25.10
2019-02-27T15:33:43.942Z,25.20
2019-02-27T15:36:14.175Z,24.90
2019-02-27T15:38:46.143Z,24.67
2019-02-27T15:41:17.357Z,24.33
2019-02-27T15:43:57.436Z,24.29
2019-02-27T15:46:21.902Z,24.08
2019-02-27T15:48:51.946Z,23.58
2019-02-27T15:51:22.445Z,23.47
2019-02-27T15:53:52.946Z,23.27
2019-02-27T15:56:23.197Z,23.07
2019-02-27T15:58:53.689Z,22.77
2019-02-27T16:01:27.943Z,22.56
2019-02-27T16:03:56.749Z,22.58
2019-02-27T16:06:27.300Z,22.13
2019-02-27T16:08:58.414Z,21.84
2019-02-27T16:11:28.695Z,21.69
2019-02-27T16:13:59.206Z,21.53
2019-02-27T16:16:29.753Z,21.20
2019-02-27T16:19:00.031Z,21.02
2019-02-27T16:21:30.745Z,20.87
2019-02-27T16:24:01.211Z,20.44
2019-02-27T16:26:31.509Z,20.28
2019-02-27T16:29:02.086Z,19.75
2019-02-27T16:31:32.884Z,19.66
2019-02-27T16:34:03.434Z,19.49
2019-02-27T16:36:36.429Z,19.33
2019-02-27T16:39:08.298Z,19.01
2019-02-27T16:41:40.661Z,18.83
2019-02-27T16:44:11.207Z,18.67
2019-02-27T16:46:44.567Z,18.41
2019-02-27T16:49:14.148Z,18.23
2019-02-27T16:51:45.526Z,17.86
2019-02-27T16:54:16.658Z,17.49
2019-02-27T16:56:50.027Z,17.29
2019-02-27T16:59:20.022Z,17.18
2019-02-27T17:01:50.591Z,16.90
2019-02-27T17:04:21.059Z,16.71
2019-02-27T17:06:52.430Z,16.35
2019-02-27T17:09:22.638Z,16.08
2019-02-27T17:11:52.970Z,15.78
2019-02-27T17:14:24.424Z,15.47
2019-02-27T17:16:55.172Z,15.28
2019-02-27T17:19:26.020Z,14.98
2019-02-27T17:21:58.811Z,14.83
2019-02-27T17:24:29.467Z,14.45
2019-02-27T17:26:59.921Z,14.30
2019-02-27T17:29:31.137Z,14.16
2019-02-27T17:32:02.035Z,13.96
2019-02-27T17:34:32.489Z,13.71
2019-02-27T17:37:03.639Z,13.47
2019-02-27T17:39:34.792Z,13.31
2019-02-27T17:42:05.036Z,13.02
2019-02-27T17:44:37.642Z,12.84
2019-02-27T17:47:08.271Z,12.69
2019-02-27T17:49:38.548Z,12.51
2019-02-27T17:52:11.547Z,12.27
2019-02-27T17:54:41.533Z,12.02
2019-02-27T17:57:11.876Z,11.90
2019-02-27T17:59:42.373Z,11.79
2019-02-27T18:02:13.459Z,11.71
2019-02-27T18:04:45.677Z,11.63
2019-02-27T18:07:15.857Z,11.52
2019-02-27T18:09:46.316Z,11.28
2019-02-27T18:12:16.808Z,11.15
2019-02-27T18:14:47.251Z,10.95
2019-02-27T18:17:17.619Z,10.80
2019-02-27T18:19:50.267Z,10.67
2019-02-27T18:22:20.262Z,10.50
2019-02-27T18:24:50.880Z,10.38
2019-02-27T18:27:24.646Z,10.20
2019-02-27T18:29:53.505Z,10.04
2019-02-27T18:32:24.339Z,9.93
2019-02-27T18:34:55.277Z,9.87
2019-02-27T18:37:25.764Z,9.86
2019-02-27T18:39:56.191Z,9.87
2019-02-27T18:42:27.035Z,9.66
2019-02-27T18:44:57.553Z,9.51
2019-02-27T18:47:28.541Z,9.44
2019-02-27T18:49:58.941Z,9.31
2019-02-27T18:52:29.512Z,9.03
2019-02-27T18:54:59.904Z,9.03
2019-02-27T18:57:30.505Z,8.93
2019-02-27T19:00:02.356Z,8.83
2019-02-27T19:02:33.350Z,8.78
2019-02-27T19:05:06.663Z,8.59
2019-02-27T19:07:35.825Z,8.39
2019-02-27T19:10:06.803Z,8.29
2019-02-27T19:12:38.131Z,8.24
2019-02-27T19:15:11.425Z,8.12
2019-02-27T19:17:42.632Z,8.00
2019-02-27T19:20:14.373Z,7.87
2019-02-27T19:22:45.502Z,7.77
2019-02-27T19:25:16.003Z,7.68
2019-02-27T19:27:46.468Z,7.69
2019-02-27T19:30:18.381Z,7.63
2019-02-27T19:32:49.609Z,7.49
2019-02-27T19:35:21.692Z,7.33
2019-02-27T19:37:53.080Z,7.25
2019-02-27T19:40:24.009Z,7.15
2019-02-27T19:42:59.325Z,7.00
2019-02-27T19:45:30.279Z,6.84
2019-02-27T19:48:00.703Z,6.71
2019-02-27T19:50:31.629Z,6.63
2019-02-27T19:53:05.198Z,6.64
2019-02-27T19:55:35.302Z,6.56
2019-02-27T19:58:06.196Z,6.54
2019-02-27T20:00:38.071Z,6.44
2019-02-27T20:03:09.516Z,6.31
2019-02-27T20:05:39.994Z,6.21
2019-02-27T20:08:11.149Z,6.06
2019-02-27T20:10:44.230Z,5.97
2019-02-27T20:13:14.901Z,5.91
2019-02-27T20:15:46.417Z,5.79
2019-02-27T20:18:18.158Z,5.80
2019-02-27T20:20:48.785Z,5.72
2019-02-27T20:23:19.685Z,5.68
2019-02-27T20:25:50.362Z,5.70
2019-02-27T20:28:20.833Z,5.63
2019-02-27T20:30:51.423Z,5.61
2019-02-27T20:33:22.541Z,5.59
2019-02-27T20:35:55.654Z,5.55
2019-02-27T20:38:25.962Z,5.53
2019-02-27T20:40:56.953Z,5.47
2019-02-27T20:43:29.411Z,5.41
2019-02-27T20:46:00.845Z,5.37
2019-02-27T20:48:32.303Z,5.29
2019-02-27T20:51:06.019Z,5.22
2019-02-27T20:53:36.122Z,5.16
2019-02-27T20:56:07.103Z,5.08
2019-02-27T20:58:37.607Z,5.04
2019-02-27T21:01:11.052Z,4.97
2019-02-27T21:03:40.475Z,4.91
2019-02-27T21:06:12.872Z,4.81
2019-02-27T21:08:43.193Z,4.80
2019-02-27T21:11:13.886Z,4.73
2019-02-27T21:13:49.323Z,4.59
2019-02-27T21:16:17.032Z,4.56
2019-02-27T21:18:47.682Z,4.54
2019-02-27T21:21:20.655Z,4.44
2019-02-27T21:23:52.340Z,4.37
2019-02-27T21:26:23.629Z,4.32
2019-02-27T21:28:58.502Z,4.24
2019-02-27T21:31:27.687Z,4.19
2019-02-27T21:33:58.580Z,4.16
2019-02-27T21:36:28.922Z,4.12
2019-02-27T21:38:59.604Z,4.12
2019-02-27T21:41:30.178Z,4.07
2019-02-27T21:44:01.177Z,3.97
2019-02-27T21:46:32.793Z,3.97
2019-02-27T21:49:04.777Z,3.84
2019-02-27T21:51:35.195Z,3.76
2019-02-27T21:54:05.993Z,3.73
2019-02-27T21:56:36.498Z,3.67
2019-02-27T21:59:07.056Z,3.64
2019-02-27T22:01:38.387Z,3.57
2019-02-27T22:04:09.770Z,3.47
2019-02-27T22:06:41.160Z,3.41
2019-02-27T22:09:13.635Z,3.31
2019-02-27T22:11:44.224Z,3.22
2019-02-27T22:14:16.602Z,3.19
2019-02-27T22:16:46.471Z,3.11
2019-02-27T22:19:18.997Z,3.11
2019-02-27T22:21:49.051Z,2.92
2019-02-27T22:24:20.947Z,2.89
2019-02-27T22:26:51.642Z,2.83
2019-02-27T22:29:22.287Z,2.93
2019-02-27T22:31:52.520Z,2.90
2019-02-27T22:34:22.967Z,2.85
2019-02-27T22:36:53.341Z,2.81
2019-02-27T22:39:23.973Z,2.80
2019-02-27T22:41:54.164Z,2.68
2019-02-27T22:44:26.335Z,2.57
2019-02-27T22:46:56.673Z,2.47
2019-02-27T22:49:26.821Z,2.33
2019-02-27T22:51:57.019Z,2.37
2019-02-27T22:54:27.355Z,2.26
2019-02-27T22:56:57.600Z,2.21
2019-02-27T22:59:28.883Z,2.21
2019-02-27T23:01:59.235Z,2.24
2019-02-27T23:04:30.663Z,2.17
2019-02-27T23:07:02.153Z,2.14
2019-02-27T23:09:32.957Z,2.11
2019-02-27T23:12:03.646Z,1.96
2019-02-27T23:14:33.988Z,1.83
2019-02-27T23:17:06.646Z,1.83
2019-02-27T23:19:36.916Z,1.79
2019-02-27T23:22:07.246Z,1.72
2019-02-27T23:24:37.554Z,1.66
2019-02-27T23:27:07.968Z,1.55
2019-02-27T23:29:39.907Z,1.57
2019-02-27T23:32:10.828Z,1.51
2019-02-27T23:34:41.677Z,1.57
2019-02-27T23:37:12.606Z,1.59
2019-02-27T23:39:43.659Z,1.47
2019-02-27T23:42:15.527Z,1.38
2019-02-27T23:44:45.852Z,1.30
2019-02-27T23:47:16.027Z,1.29
2019-02-27T23:49:46.337Z,1.33
2019-02-27T23:52:19.318Z,1.37
2019-02-27T23:54:48.629Z,1.39
2019-02-27T23:57:18.817Z,1.34
2019-02-27T23:59:49.031Z,1.25
